Time;durP1;ratioP1;P1;durP2;ratioP2;P2;SDS_P1;SDS_P2;PMS_P1;PMS_P2;Temp;Humidity;BMP_temperature;BMP_pressure;BME280_temperature;BME280_humidity;BME280_pressure;Samples;Min_cycle;Max_cycle;Signal;HPM_P1;HPM_P2
2020/12/21 00:02:14;;;;;;;14.20;12.80;;;;;;;;;;5036194;28;20539;-58
2020/12/21 00:04:39;;;;;;;12.77;10.60;;;;;;;;;;5050630;28;20263;-59
2020/12/21 00:07:04;;;;;;;13.70;11.10;;;;;;;;;;5054996;28;20221;-59
2020/12/21 00:09:30;;;;;;;13.50;12.10;;;;;;;;;;5056538;28;20305;-58
2020/12/21 00:11:55;;;;;;;16.13;12.10;;;;;;;;;;5056596;28;20225;-59
2020/12/21 00:14:20;;;;;;;13.10;11.63;;;;;;;;;;5055874;28;20319;-59
2020/12/21 00:16:48;;;;;;;13.70;12.20;;;;;;;;;;5056585;28;20580;-59
2020/12/21 00:19:18;;;;;;;10.90;9.73;;;;;;;;;;5051743;28;20213;-60
2020/12/21 00:21:43;;;;;;;13.10;11.23;;;;;;;;;;5055152;28;20437;-60
2020/12/21 00:24:09;;;;;;;12.73;10.43;;;;;;;;;;5055633;28;20540;-60
2020/12/21 00:26:34;;;;;;;12.50;11.13;;;;;;;;;;5055555;28;20218;-60
2020/12/21 00:29:00;;;;;;;12.90;11.67;;;;;;;;;;5054495;28;20580;-59
2020/12/21 00:31:27;;;;;;;12.27;11.03;;;;;;;;;;5055847;28;20254;-60
2020/12/21 00:33:53;;;;;;;13.97;11.97;;;;;;;;;;5056361;28;20229;-60
2020/12/21 00:36:18;;;;;;;13.67;12.27;;;;;;;;;;5054322;28;20774;-59
2020/12/21 00:38:44;;;;;;;13.30;11.27;;;;;;;;;;5055547;28;20220;-60
2020/12/21 00:41:16;;;;;;;12.57;10.07;;;;;;;;;;5055638;28;20629;-59
2020/12/21 00:43:45;;;;;;;12.13;10.90;;;;;;;;;;5055787;28;20226;-59
2020/12/21 00:46:15;;;;;;;12.50;11.20;;;;;;;;;;5055602;28;20951;-60
2020/12/21 00:48:41;;;;;;;15.17;11.20;;;;;;;;;;5055606;28;20474;-59
2020/12/21 00:51:07;;;;;;;12.27;10.80;;;;;;;;;;5042386;28;20732;-59
2020/12/21 00:53:32;;;;;;;13.33;11.87;;;;;;;;;;5045841;28;20433;-60
2020/12/21 00:56:02;;;;;;;12.00;10.43;;;;;;;;;;5056332;28;20224;-59
2020/12/21 00:58:27;;;;;;;12.63;10.70;;;;;;;;;;5055996;28;20213;-59
2020/12/21 01:00:52;;;;;;;13.83;11.30;;;;;;;;;;5056210;28;20488;-59
2020/12/21 01:03:17;;;;;;;11.30;10.03;;;;;;;;;;5055595;28;20212;-59
2020/12/21 01:05:43;;;;;;;14.10;12.13;;;;;;;;;;5055936;28;20242;-60
2020/12/21 01:08:08;;;;;;;12.83;10.47;;;;;;;;;;5055492;28;20244;-60
2020/12/21 01:10:33;;;;;;;16.70;10.23;;;;;;;;;;5055809;28;20225;-60
2020/12/21 01:12:58;;;;;;;11.50;9.77;;;;;;;;;;5057222;28;20660;-60
2020/12/21 01:15:24;;;;;;;12.50;10.70;;;;;;;;;;5059517;28;20221;-59
2020/12/21 01:17:49;;;;;;;11.80;10.60;;;;;;;;;;5060029;28;20343;-61
2020/12/21 01:20:14;;;;;;;11.97;9.80;;;;;;;;;;5059624;28;20217;-59
2020/12/21 01:22:39;;;;;;;11.43;10.27;;;;;;;;;;5059960;28;20358;-59
2020/12/21 01:25:07;;;;;;;11.43;10.20;;;;;;;;;;5059546;28;20235;-59
2020/12/21 01:27:32;;;;;;;14.53;11.00;;;;;;;;;;5049074;28;20218;-59
2020/12/21 01:29:57;;;;;;;12.47;11.17;;;;;;;;;;5039884;28;20431;-59
2020/12/21 01:32:22;;;;;;;12.50;10.07;;;;;;;;;;5039301;28;20231;-59
2020/12/21 01:34:48;;;;;;;11.20;10.10;;;;;;;;;;5054728;28;20221;-59
2020/12/21 01:37:13;;;;;;;13.33;9.67;;;;;;;;;;5059014;28;20209;-59
2020/12/21 01:39:38;;;;;;;12.17;10.17;;;;;;;;;;5053626;28;20224;-60
2020/12/21 01:42:04;;;;;;;12.90;10.40;;;;;;;;;;5041790;28;20296;-60
2020/12/21 01:44:29;;;;;;;11.97;10.10;;;;;;;;;;5058527;28;20228;-60
2020/12/21 01:47:01;;;;;;;11.37;10.17;;;;;;;;;;5059077;28;20264;-61
2020/12/21 01:49:26;;;;;;;12.90;11.60;;;;;;;;;;5058205;28;20263;-60
2020/12/21 01:51:52;;;;;;;10.20;9.20;;;;;;;;;;5059157;28;20942;-60
2020/12/21 01:54:17;;;;;;;12.37;11.07;;;;;;;;;;5057665;28;20213;-60
2020/12/21 01:56:43;;;;;;;12.27;11.13;;;;;;;;;;5043232;28;20553;-60
2020/12/21 01:59:08;;;;;;;11.90;9.90;;;;;;;;;;5039302;28;20225;-58
2020/12/21 02:01:34;;;;;;;11.70;10.50;;;;;;;;;;5038752;28;20532;-59
2020/12/21 02:04:00;;;;;;;12.07;10.67;;;;;;;;;;5047399;28;20284;-58
2020/12/21 02:06:26;;;;;;;11.83;10.70;;;;;;;;;;5057204;28;20832;-59
2020/12/21 02:08:51;;;;;;;14.43;10.20;;;;;;;;;;5059208;28;20271;-59
2020/12/21 02:11:16;;;;;;;16.83;11.00;;;;;;;;;;5058339;28;20471;-59
2020/12/21 02:13:41;;;;;;;12.67;10.70;;;;;;;;;;5043622;28;20229;-59
2020/12/21 02:16:08;;;;;;;11.97;10.77;;;;;;;;;;5038800;28;20224;-59
2020/12/21 02:18:33;;;;;;;12.00;10.50;;;;;;;;;;5038605;28;20237;-59
2020/12/21 02:20:58;;;;;;;11.90;10.00;;;;;;;;;;5038990;28;20476;-59
2020/12/21 02:23:24;;;;;;;12.77;11.20;;;;;;;;;;5043589;28;20591;-59
2020/12/21 02:25:49;;;;;;;12.57;11.03;;;;;;;;;;5058838;28;20283;-60
2020/12/21 02:28:14;;;;;;;11.13;9.43;;;;;;;;;;5042434;28;20272;-60
2020/12/21 02:30:40;;;;;;;11.00;9.90;;;;;;;;;;5038532;28;20244;-59
2020/12/21 02:33:06;;;;;;;12.80;11.07;;;;;;;;;;5038719;28;20717;-60
2020/12/21 02:35:33;;;;;;;12.10;10.80;;;;;;;;;;5037593;28;20229;-59
2020/12/21 02:37:58;;;;;;;10.13;9.10;;;;;;;;;;5038930;28;20909;-60
2020/12/21 02:40:23;;;;;;;14.10;10.67;;;;;;;;;;5038085;28;20459;-60
2020/12/21 02:42:49;;;;;;;10.97;9.80;;;;;;;;;;5038582;28;20219;-60
2020/12/21 02:45:14;;;;;;;12.60;11.30;;;;;;;;;;5038247;28;20301;-59
2020/12/21 02:47:39;;;;;;;11.87;10.67;;;;;;;;;;5038526;28;20213;-60
2020/12/21 02:50:04;;;;;;;11.50;10.30;;;;;;;;;;5038247;28;20299;-59
2020/12/21 02:52:31;;;;;;;10.77;9.43;;;;;;;;;;5038541;28;20253;-60
2020/12/21 02:54:56;;;;;;;11.20;9.80;;;;;;;;;;5038522;28;20219;-60
2020/12/21 02:57:22;;;;;;;11.73;10.00;;;;;;;;;;5037993;28;20995;-60
2020/12/21 02:59:47;;;;;;;13.07;10.83;;;;;;;;;;5038164;28;20229;-59
2020/12/21 03:02:12;;;;;;;12.80;10.10;;;;;;;;;;5038595;28;20436;-60
2020/12/21 03:04:38;;;;;;;11.60;9.73;;;;;;;;;;5051031;28;20304;-60
2020/12/21 03:07:03;;;;;;;12.10;10.80;;;;;;;;;;5058189;28;20212;-60
2020/12/21 03:09:28;;;;;;;11.83;10.40;;;;;;;;;;5057745;28;20304;-60
2020/12/21 03:11:54;;;;;;;12.07;10.33;;;;;;;;;;5058042;28;20232;-60
2020/12/21 03:14:19;;;;;;;12.23;11.03;;;;;;;;;;5057912;28;20235;-60
2020/12/21 03:16:44;;;;;;;11.10;10.00;;;;;;;;;;5058129;28;20549;-60
2020/12/21 03:19:09;;;;;;;11.87;10.50;;;;;;;;;;5058090;28;20300;-60
2020/12/21 03:21:35;;;;;;;12.90;10.87;;;;;;;;;;5056175;28;20225;-60
2020/12/21 03:24:00;;;;;;;12.07;10.87;;;;;;;;;;5049241;28;20212;-60
2020/12/21 03:26:26;;;;;;;12.50;10.67;;;;;;;;;;5055289;28;20305;-59
2020/12/21 03:28:51;;;;;;;12.13;10.83;;;;;;;;;;5037722;28;20578;-60
2020/12/21 03:31:16;;;;;;;11.00;9.53;;;;;;;;;;5037232;28;20225;-60
2020/12/21 03:33:42;;;;;;;10.97;9.87;;;;;;;;;;5037246;28;20216;-59
2020/12/21 03:36:07;;;;;;;11.70;10.47;;;;;;;;;;5037112;28;20214;-60
2020/12/21 03:38:32;;;;;;;10.03;9.03;;;;;;;;;;5036922;28;20561;-60
2020/12/21 03:40:57;;;;;;;12.77;11.47;;;;;;;;;;5037307;28;20221;-60
2020/12/21 03:43:23;;;;;;;13.87;11.50;;;;;;;;;;5037281;28;20304;-60
2020/12/21 03:45:49;;;;;;;13.63;12.17;;;;;;;;;;5037636;28;20224;-60
2020/12/21 03:48:14;;;;;;;13.90;12.33;;;;;;;;;;5037846;28;20218;-58
2020/12/21 03:50:40;;;;;;;13.60;11.57;;;;;;;;;;5054373;28;20960;-58
2020/12/21 03:53:05;;;;;;;12.10;10.80;;;;;;;;;;5046207;28;20228;-59
2020/12/21 03:55:30;;;;;;;13.07;11.67;;;;;;;;;;5056482;28;20224;-59
2020/12/21 03:57:56;;;;;;;13.37;11.83;;;;;;;;;;5056952;28;20520;-59
2020/12/21 04:00:21;;;;;;;12.70;10.60;;;;;;;;;;5037827;28;20294;-60
2020/12/21 04:02:46;;;;;;;12.53;11.23;;;;;;;;;;5045129;28;20676;-59
2020/12/21 04:05:11;;;;;;;14.60;11.60;;;;;;;;;;5051685;28;20221;-58
2020/12/21 04:07:37;;;;;;;12.57;11.27;;;;;;;;;;5045808;28;20225;-60
2020/12/21 04:10:07;;;;;;;13.90;11.63;;;;;;;;;;5048501;28;20225;-60
2020/12/21 04:12:33;;;;;;;12.30;11.00;;;;;;;;;;5055605;28;20235;-59
2020/12/21 04:14:59;;;;;;;13.33;11.83;;;;;;;;;;5046325;28;20446;-60
2020/12/21 04:17:24;;;;;;;13.77;12.37;;;;;;;;;;5036967;28;20474;-59
2020/12/21 04:19:49;;;;;;;11.03;9.80;;;;;;;;;;5036893;28;20237;-60
2020/12/21 04:22:14;;;;;;;14.53;12.20;;;;;;;;;;5041580;28;20217;-60
2020/12/21 04:24:40;;;;;;;15.20;11.93;;;;;;;;;;5040583;28;20248;-59
2020/12/21 04:27:05;;;;;;;12.77;10.83;;;;;;;;;;5039162;28;20335;-59
2020/12/21 04:29:30;;;;;;;12.60;11.30;;;;;;;;;;5051973;28;20275;-58
2020/12/21 04:31:55;;;;;;;13.27;11.57;;;;;;;;;;5055823;28;20217;-58
2020/12/21 04:34:23;;;;;;;12.33;11.03;;;;;;;;;;5054959;28;20561;-60
2020/12/21 04:36:49;;;;;;;13.70;12.30;;;;;;;;;;5056064;28;20300;-60
2020/12/21 04:39:14;;;;;;;13.13;11.87;;;;;;;;;;5056353;28;20481;-60
2020/12/21 04:41:39;;;;;;;15.50;13.13;;;;;;;;;;5055767;28;20318;-59
2020/12/21 04:44:05;;;;;;;12.13;10.70;;;;;;;;;;5056366;28;20295;-60
2020/12/21 04:46:30;;;;;;;14.00;12.53;;;;;;;;;;5055374;28;20228;-61
2020/12/21 04:48:58;;;;;;;13.40;11.80;;;;;;;;;;5053641;28;20219;-60
2020/12/21 04:51:32;;;;;;;13.50;11.30;;;;;;;;;;5054919;28;20236;-59
2020/12/21 04:53:57;;;;;;;12.43;11.03;;;;;;;;;;5055097;28;20539;-59
2020/12/21 04:56:22;;;;;;;13.33;12.03;;;;;;;;;;5056240;28;20907;-59
2020/12/21 04:58:48;;;;;;;14.00;12.57;;;;;;;;;;5049630;28;20217;-59
2020/12/21 05:01:13;;;;;;;13.40;12.00;;;;;;;;;;5042748;28;20284;-61
2020/12/21 05:03:39;;;;;;;13.67;12.23;;;;;;;;;;5032843;28;20251;-60
2020/12/21 05:06:06;;;;;;;14.87;13.17;;;;;;;;;;5056035;28;20221;-60
2020/12/21 05:08:31;;;;;;;12.97;11.40;;;;;;;;;;5056501;28;20430;-59
2020/12/21 05:10:59;;;;;;;14.33;12.83;;;;;;;;;;5056451;28;20461;-58
2020/12/21 05:13:27;;;;;;;15.67;13.53;;;;;;;;;;5056877;28;20556;-59
2020/12/21 05:15:54;;;;;;;13.67;12.27;;;;;;;;;;5045760;28;20464;-60
2020/12/21 05:18:27;;;;;;;14.40;11.77;;;;;;;;;;5036081;28;20473;-59
2020/12/21 05:21:05;;;;;;;13.37;11.47;;;;;;;;;;5035554;28;20784;-61
2020/12/21 05:23:31;;;;;;;13.83;12.23;;;;;;;;;;5042460;28;20443;-59
2020/12/21 05:26:01;;;;;;;14.03;11.83;;;;;;;;;;5055777;28;20822;-59
2020/12/21 05:28:28;;;;;;;14.40;13.00;;;;;;;;;;5056488;28;20293;-59
2020/12/21 05:31:00;;;;;;;13.37;11.97;;;;;;;;;;5055577;28;20502;-59
2020/12/21 05:33:25;;;;;;;13.57;11.00;;;;;;;;;;5056256;28;20447;-60
2020/12/21 05:35:51;;;;;;;14.17;12.10;;;;;;;;;;5056166;28;20985;-60
2020/12/21 05:38:25;;;;;;;15.20;11.83;;;;;;;;;;5054493;28;20311;-61
2020/12/21 05:40:54;;;;;;;14.73;13.27;;;;;;;;;;5054279;28;20229;-60
2020/12/21 05:43:25;;;;;;;15.33;12.30;;;;;;;;;;5054485;28;20459;-61
2020/12/21 05:46:08;;;;;;;15.73;13.00;;;;;;;;;;5054128;28;20777;-60
2020/12/21 05:48:37;;;;;;;14.63;12.57;;;;;;;;;;5045942;28;20829;-60
2020/12/21 05:51:04;;;;;;;16.23;12.63;;;;;;;;;;5054587;28;20427;-61
2020/12/21 05:53:35;;;;;;;16.40;11.80;;;;;;;;;;5054212;28;20767;-61
2020/12/21 05:56:02;;;;;;;15.30;12.20;;;;;;;;;;5053379;28;20442;-60
2020/12/21 05:58:32;;;;;;;13.47;11.87;;;;;;;;;;5055195;28;20526;-59
2020/12/21 06:01:00;;;;;;;13.43;12.00;;;;;;;;;;5057084;28;20426;-59
2020/12/21 06:03:38;;;;;;;12.67;11.37;;;;;;;;;;5057427;28;20444;-60
2020/12/21 06:06:11;;;;;;;11.57;10.37;;;;;;;;;;5055683;28;20440;-60
2020/12/21 06:08:36;;;;;;;11.77;10.50;;;;;;;;;;5037622;28;20784;-60
2020/12/21 06:11:28;;;;;;;14.47;12.00;;;;;;;;;;5037218;28;20459;-60
2020/12/21 06:13:56;;;;;;;14.17;11.33;;;;;;;;;;5037781;28;20218;-60
2020/12/21 06:16:23;;;;;;;13.90;11.50;;;;;;;;;;5036815;28;20471;-60
2020/12/21 06:19:11;;;;;;;12.80;10.67;;;;;;;;;;5037018;28;20481;-59
2020/12/21 06:21:40;;;;;;;15.53;10.67;;;;;;;;;;5037116;28;20453;-60
2020/12/21 06:24:20;;;;;;;12.00;10.03;;;;;;;;;;5047770;28;20891;-60
2020/12/21 06:26:46;;;;;;;13.90;12.50;;;;;;;;;;5056779;28;20487;-60
2020/12/21 06:29:26;;;;;;;15.53;10.50;;;;;;;;;;5057237;28;20452;-61
2020/12/21 06:32:02;;;;;;;11.83;10.60;;;;;;;;;;5056353;28;20567;-61
2020/12/21 06:34:28;;;;;;;15.17;12.33;;;;;;;;;;5057185;28;20469;-60
2020/12/21 06:36:59;;;;;;;13.73;12.33;;;;;;;;;;5056727;28;20550;-60
2020/12/21 06:39:25;;;;;;;15.50;12.33;;;;;;;;;;5057123;28;20231;-60
2020/12/21 06:42:14;;;;;;;12.90;10.97;;;;;;;;;;5055384;28;20461;-60
2020/12/21 06:44:40;;;;;;;12.70;10.80;;;;;;;;;;5057126;28;20213;-60
2020/12/21 06:47:10;;;;;;;11.23;10.10;;;;;;;;;;5056177;28;20461;-60
2020/12/21 06:49:35;;;;;;;13.97;11.60;;;;;;;;;;5056522;28;20491;-61
2020/12/21 06:52:01;;;;;;;10.67;9.57;;;;;;;;;;5055867;28;20553;-61
2020/12/21 06:54:26;;;;;;;13.30;10.37;;;;;;;;;;5056620;28;20226;-60
2020/12/21 06:56:52;;;;;;;12.43;9.90;;;;;;;;;;5056390;28;20221;-60
2020/12/21 06:59:19;;;;;;;11.83;10.57;;;;;;;;;;5056646;28;20553;-60
2020/12/21 07:01:46;;;;;;;12.17;10.37;;;;;;;;;;5056134;28;20438;-61
2020/12/21 07:04:19;;;;;;;12.47;11.03;;;;;;;;;;5056576;28;20451;-61
2020/12/21 07:06:45;;;;;;;12.03;9.73;;;;;;;;;;5049284;28;20495;-61
2020/12/21 07:09:12;;;;;;;11.33;10.13;;;;;;;;;;5036352;28;20944;-61
2020/12/21 07:11:38;;;;;;;12.67;11.40;;;;;;;;;;5035430;28;20481;-59
2020/12/21 07:14:04;;;;;;;12.80;10.70;;;;;;;;;;5035767;28;20427;-60
2020/12/21 07:16:29;;;;;;;11.63;10.10;;;;;;;;;;5036002;28;20983;-60
2020/12/21 07:18:54;;;;;;;16.13;10.70;;;;;;;;;;5035757;28;20255;-60
2020/12/21 07:21:20;;;;;;;11.50;9.83;;;;;;;;;;5035987;28;20278;-60
2020/12/21 07:23:45;;;;;;;12.23;10.43;;;;;;;;;;5044124;28;20553;-59
2020/12/21 07:26:14;;;;;;;11.33;9.30;;;;;;;;;;5055976;28;20219;-60
2020/12/21 07:28:40;;;;;;;12.77;10.60;;;;;;;;;;5056048;28;20221;-61
2020/12/21 07:31:10;;;;;;;12.10;10.27;;;;;;;;;;5055784;28;20985;-60
2020/12/21 07:33:57;;;;;;;15.00;10.93;;;;;;;;;;5056253;28;20609;-60
2020/12/21 07:36:26;;;;;;;13.63;11.00;;;;;;;;;;5056277;28;20467;-60
2020/12/21 07:38:53;;;;;;;12.40;10.63;;;;;;;;;;5055851;28;20438;-60
2020/12/21 07:41:23;;;;;;;14.00;11.63;;;;;;;;;;5055918;28;20939;-60
2020/12/21 07:44:02;;;;;;;12.30;10.27;;;;;;;;;;5054973;28;20741;-60
2020/12/21 07:46:32;;;;;;;13.23;11.07;;;;;;;;;;5055785;28;20445;-60
2020/12/21 07:48:57;;;;;;;12.40;10.80;;;;;;;;;;5054605;28;20417;-60
2020/12/21 07:51:23;;;;;;;13.37;10.80;;;;;;;;;;5038063;28;20447;-60
2020/12/21 07:53:48;;;;;;;12.43;10.90;;;;;;;;;;5054438;28;20602;-60
2020/12/21 07:56:18;;;;;;;12.60;10.80;;;;;;;;;;5054363;28;20543;-61
2020/12/21 07:58:44;;;;;;;13.57;11.03;;;;;;;;;;5055280;28;20230;-58
2020/12/21 08:01:09;;;;;;;13.20;11.90;;;;;;;;;;5055459;28;20477;-59
2020/12/21 08:03:38;;;;;;;15.30;11.40;;;;;;;;;;5054800;28;20455;-59
2020/12/21 08:06:08;;;;;;;14.40;10.03;;;;;;;;;;5053775;28;20216;-60
2020/12/21 08:08:34;;;;;;;12.57;10.00;;;;;;;;;;5035237;28;20461;-60
2020/12/21 08:11:00;;;;;;;13.47;10.77;;;;;;;;;;5034645;28;20459;-60
2020/12/21 08:13:25;;;;;;;13.87;11.17;;;;;;;;;;5035792;28;20456;-60
2020/12/21 08:15:50;;;;;;;16.07;10.97;;;;;;;;;;5034580;28;20247;-59
2020/12/21 08:18:16;;;;;;;12.93;11.13;;;;;;;;;;5036106;28;20236;-62
2020/12/21 08:20:51;;;;;;;12.43;10.63;;;;;;;;;;5035275;28;20630;-59
2020/12/21 08:23:30;;;;;;;13.60;10.60;;;;;;;;;;5037788;28;20201;-61
2020/12/21 08:25:56;;;;;;;12.87;11.03;;;;;;;;;;5037661;28;20860;-61
2020/12/21 08:28:29;;;;;;;12.50;10.07;;;;;;;;;;5058198;28;20566;-61
2020/12/21 08:31:13;;;;;;;10.70;8.83;;;;;;;;;;5067467;28;20277;-62
2020/12/21 08:34:00;;;;;;;11.90;10.70;;;;;;;;;;5065123;28;20450;-61
2020/12/21 08:36:35;;;;;;;11.27;9.77;;;;;;;;;;5049194;28;20981;-62
2020/12/21 08:39:10;;;;;;;12.63;11.23;;;;;;;;;;5061220;28;20460;-61
2020/12/21 08:41:55;;;;;;;14.13;12.10;;;;;;;;;;5065209;28;20471;-62
2020/12/21 08:44:24;;;;;;;12.70;10.40;;;;;;;;;;5066694;28;20478;-62
2020/12/21 08:46:52;;;;;;;14.00;11.30;;;;;;;;;;5067220;28;20457;-62
2020/12/21 08:49:18;;;;;;;11.07;9.87;;;;;;;;;;5060868;28;20473;-61
2020/12/21 08:51:43;;;;;;;14.20;10.90;;;;;;;;;;5061403;28;20457;-62
2020/12/21 08:54:09;;;;;;;11.40;10.17;;;;;;;;;;5067635;28;20442;-61
2020/12/21 08:56:34;;;;;;;17.43;11.23;;;;;;;;;;5067152;28;20709;-62
2020/12/21 08:58:59;;;;;;;12.77;10.70;;;;;;;;;;5060921;28;20300;-62
2020/12/21 09:01:24;;;;;;;12.63;10.30;;;;;;;;;;5061128;28;20225;-61
2020/12/21 09:03:50;;;;;;;15.53;11.90;;;;;;;;;;5071311;28;20281;-61
2020/12/21 09:06:23;;;;;;;12.57;11.27;;;;;;;;;;5061925;28;20221;-62
2020/12/21 09:08:49;;;;;;;15.20;12.13;;;;;;;;;;5047298;28;20640;-63
2020/12/21 09:11:19;;;;;;;13.03;10.87;;;;;;;;;;5061142;28;20956;-63
2020/12/21 09:13:44;;;;;;;15.10;12.60;;;;;;;;;;5067130;28;20496;-63
2020/12/21 09:16:09;;;;;;;16.13;11.33;;;;;;;;;;5066915;28;20478;-63
2020/12/21 09:18:35;;;;;;;12.67;10.17;;;;;;;;;;5060567;28;20726;-63
2020/12/21 09:21:00;;;;;;;14.87;10.83;;;;;;;;;;5061602;28;20232;-62
2020/12/21 09:23:25;;;;;;;12.10;9.87;;;;;;;;;;5067089;28;20288;-62
2020/12/21 09:25:51;;;;;;;11.87;10.63;;;;;;;;;;5048551;28;20718;-62
2020/12/21 09:28:16;;;;;;;13.73;10.67;;;;;;;;;;5064440;28;20239;-62
2020/12/21 09:30:42;;;;;;;13.50;12.10;;;;;;;;;;5067450;28;20249;-61
2020/12/21 09:33:07;;;;;;;16.83;11.13;;;;;;;;;;5063432;28;20234;-62
2020/12/21 09:35:32;;;;;;;15.20;11.70;;;;;;;;;;5064016;28;20323;-61
2020/12/21 09:37:57;;;;;;;15.13;10.57;;;;;;;;;;5069810;28;20560;-61
2020/12/21 09:40:23;;;;;;;12.97;10.70;;;;;;;;;;5072314;28;20238;-62
2020/12/21 09:42:48;;;;;;;12.80;10.93;;;;;;;;;;5070492;28;20235;-62
2020/12/21 09:45:14;;;;;;;11.40;10.17;;;;;;;;;;5071830;28;20723;-61
2020/12/21 09:47:39;;;;;;;17.87;9.90;;;;;;;;;;5071491;28;20614;-61
2020/12/21 09:50:05;;;;;;;13.27;10.70;;;;;;;;;;5071030;28;20308;-61
2020/12/21 09:52:30;;;;;;;13.73;11.00;;;;;;;;;;5063897;28;20218;-61
2020/12/21 09:54:55;;;;;;;13.93;10.67;;;;;;;;;;5067087;28;20229;-62
2020/12/21 09:57:20;;;;;;;13.73;10.47;;;;;;;;;;5071711;28;20223;-62
2020/12/21 09:59:46;;;;;;;11.57;10.40;;;;;;;;;;5067707;28;20309;-61
2020/12/21 10:02:11;;;;;;;15.73;10.73;;;;;;;;;;5064233;28;20219;-61
2020/12/21 10:04:36;;;;;;;12.97;11.10;;;;;;;;;;5074473;28;20277;-61
2020/12/21 10:07:01;;;;;;;12.53;9.60;;;;;;;;;;5064021;28;20208;-61
2020/12/21 10:09:27;;;;;;;14.37;11.30;;;;;;;;;;5067175;28;20286;-62
2020/12/21 10:11:52;;;;;;;11.20;9.40;;;;;;;;;;5070625;28;20568;-62
2020/12/21 10:14:17;;;;;;;12.17;10.20;;;;;;;;;;5067074;28;20212;-61
2020/12/21 10:16:43;;;;;;;14.53;10.63;;;;;;;;;;5063350;28;20247;-62
2020/12/21 10:19:08;;;;;;;11.03;9.97;;;;;;;;;;5067953;28;20325;-62
2020/12/21 10:21:33;;;;;;;12.07;10.80;;;;;;;;;;5070257;28;20224;-62
2020/12/21 10:23:58;;;;;;;13.40;10.73;;;;;;;;;;5067179;28;20694;-63
2020/12/21 10:26:24;;;;;;;13.53;11.27;;;;;;;;;;5063754;28;20366;-62
2020/12/21 10:28:49;;;;;;;11.90;9.93;;;;;;;;;;5067137;28;20500;-62
2020/12/21 10:31:15;;;;;;;12.50;11.20;;;;;;;;;;5069466;28;20229;-61
2020/12/21 10:33:40;;;;;;;12.50;9.93;;;;;;;;;;5065120;28;20231;-61
2020/12/21 10:36:05;;;;;;;15.47;10.87;;;;;;;;;;5063554;28;20336;-62
2020/12/21 10:38:31;;;;;;;14.87;10.27;;;;;;;;;;5068016;28;20228;-61
2020/12/21 10:40:56;;;;;;;13.60;10.50;;;;;;;;;;5058497;28;20229;-62
2020/12/21 10:43:22;;;;;;;14.43;9.90;;;;;;;;;;5068919;28;20482;-62
2020/12/21 10:45:47;;;;;;;10.93;9.83;;;;;;;;;;5068866;28;20303;-62
2020/12/21 10:48:12;;;;;;;16.13;10.50;;;;;;;;;;5064349;28;20224;-62
2020/12/21 10:50:37;;;;;;;12.80;10.13;;;;;;;;;;5062910;28;20609;-62
2020/12/21 10:53:03;;;;;;;11.40;8.57;;;;;;;;;;5069055;28;20228;-62
2020/12/21 10:55:28;;;;;;;9.87;8.87;;;;;;;;;;5070076;28;20739;-61
2020/12/21 10:57:53;;;;;;;13.87;10.27;;;;;;;;;;5063440;28;20225;-62
2020/12/21 11:00:18;;;;;;;12.80;10.40;;;;;;;;;;5062767;28;20252;-62
2020/12/21 11:02:44;;;;;;;10.90;9.80;;;;;;;;;;5068764;28;20221;-62
2020/12/21 11:05:10;;;;;;;13.00;9.23;;;;;;;;;;5069878;28;20659;-62
2020/12/21 11:07:35;;;;;;;9.90;8.53;;;;;;;;;;5063166;28;20605;-62
2020/12/21 11:10:03;;;;;;;9.50;8.33;;;;;;;;;;5062914;28;20497;-62
2020/12/21 11:12:28;;;;;;;9.60;8.70;;;;;;;;;;5068503;28;20228;-61
2020/12/21 11:14:54;;;;;;;10.00;8.70;;;;;;;;;;5068808;28;20553;-62
2020/12/21 11:17:19;;;;;;;9.53;8.30;;;;;;;;;;5062671;28;20265;-62
2020/12/21 11:19:44;;;;;;;10.90;8.27;;;;;;;;;;5061863;28;20726;-62
2020/12/21 11:22:09;;;;;;;9.10;7.87;;;;;;;;;;5068512;28;20217;-62
2020/12/21 11:24:35;;;;;;;12.30;9.70;;;;;;;;;;5067544;28;20301;-62
2020/12/21 11:27:00;;;;;;;10.73;8.13;;;;;;;;;;5062445;28;20687;-62
2020/12/21 11:29:26;;;;;;;9.13;8.20;;;;;;;;;;5061983;28;20241;-62
2020/12/21 11:31:51;;;;;;;13.17;9.00;;;;;;;;;;5068333;28;20229;-62
2020/12/21 11:34:16;;;;;;;12.03;8.90;;;;;;;;;;5068419;28;20664;-62
2020/12/21 11:36:43;;;;;;;10.20;8.40;;;;;;;;;;5060551;28;20225;-62
2020/12/21 11:39:08;;;;;;;9.10;7.87;;;;;;;;;;5062404;28;20235;-62
2020/12/21 11:41:33;;;;;;;11.00;9.53;;;;;;;;;;5068283;28;20540;-61
2020/12/21 11:44:00;;;;;;;9.50;8.50;;;;;;;;;;5067339;28;20652;-61
2020/12/21 11:46:29;;;;;;;12.10;8.37;;;;;;;;;;5061633;28;20661;-62
2020/12/21 11:48:54;;;;;;;10.73;8.10;;;;;;;;;;5061597;28;20428;-62
2020/12/21 11:51:20;;;;;;;12.17;8.77;;;;;;;;;;5068231;28;20560;-62
2020/12/21 11:53:45;;;;;;;9.33;7.83;;;;;;;;;;5066903;28;20230;-62
2020/12/21 11:56:15;;;;;;;12.40;8.17;;;;;;;;;;5060424;28;20617;-62
2020/12/21 11:58:40;;;;;;;14.73;7.57;;;;;;;;;;5061708;28;20225;-62
2020/12/21 12:01:06;;;;;;;12.27;7.90;;;;;;;;;;5068336;28;20486;-62
2020/12/21 12:03:31;;;;;;;8.77;7.87;;;;;;;;;;5063127;28;20338;-61
2020/12/21 12:05:57;;;;;;;8.23;7.40;;;;;;;;;;5067803;28;20243;-62
2020/12/21 12:08:23;;;;;;;9.63;7.40;;;;;;;;;;5066985;28;20222;-62
2020/12/21 12:10:48;;;;;;;11.13;7.77;;;;;;;;;;5060800;28;20225;-62
2020/12/21 12:13:13;;;;;;;10.87;8.77;;;;;;;;;;5062310;28;20979;-62
2020/12/21 12:15:38;;;;;;;10.87;8.37;;;;;;;;;;5066902;28;20238;-61
2020/12/21 12:18:04;;;;;;;11.80;8.00;;;;;;;;;;5066648;28;20281;-61
2020/12/21 12:20:29;;;;;;;9.67;8.17;;;;;;;;;;5060872;28;20224;-62
2020/12/21 12:22:54;;;;;;;11.33;8.50;;;;;;;;;;5062248;28;20696;-61
2020/12/21 12:25:19;;;;;;;13.23;9.87;;;;;;;;;;5066572;28;20225;-62
2020/12/21 12:27:45;;;;;;;9.53;7.37;;;;;;;;;;5067740;28;20307;-62
2020/12/21 12:30:10;;;;;;;12.40;9.20;;;;;;;;;;5068119;28;20283;-61
2020/12/21 12:32:35;;;;;;;14.20;8.50;;;;;;;;;;5054708;28;20308;-61
2020/12/21 12:35:00;;;;;;;11.43;8.90;;;;;;;;;;5067945;28;20314;-62
2020/12/21 12:37:26;;;;;;;11.17;8.70;;;;;;;;;;5065083;28;20317;-62
2020/12/21 12:39:51;;;;;;;9.00;7.87;;;;;;;;;;5060691;28;20666;-62
2020/12/21 12:42:16;;;;;;;13.67;7.53;;;;;;;;;;5063067;28;20311;-62
2020/12/21 12:44:41;;;;;;;12.03;7.93;;;;;;;;;;5067511;28;20564;-62
2020/12/21 12:47:07;;;;;;;9.50;8.40;;;;;;;;;;5065200;28;20303;-61
2020/12/21 12:49:32;;;;;;;11.60;8.20;;;;;;;;;;5060674;28;20697;-61
2020/12/21 12:51:57;;;;;;;9.53;8.20;;;;;;;;;;5063152;28;20595;-61
2020/12/21 12:54:23;;;;;;;7.93;6.57;;;;;;;;;;5067791;28;20306;-62
2020/12/21 12:56:48;;;;;;;10.73;7.90;;;;;;;;;;5063344;28;20291;-62
2020/12/21 12:59:14;;;;;;;10.77;7.53;;;;;;;;;;5060553;28;20241;-62
2020/12/21 13:01:39;;;;;;;8.43;7.63;;;;;;;;;;5062674;28;20292;-61
2020/12/21 13:04:04;;;;;;;10.90;8.90;;;;;;;;;;5064290;28;20699;-61
2020/12/21 13:06:30;;;;;;;9.20;7.43;;;;;;;;;;5069485;28;20333;-62
2020/12/21 13:08:55;;;;;;;9.77;7.40;;;;;;;;;;5064053;28;20227;-62
2020/12/21 13:11:21;;;;;;;8.37;7.47;;;;;;;;;;5066976;28;20713;-62
2020/12/21 13:13:46;;;;;;;16.10;6.93;;;;;;;;;;5064319;28;20221;-62
2020/12/21 13:16:11;;;;;;;10.00;9.00;;;;;;;;;;5069929;28;20518;-61
2020/12/21 13:18:37;;;;;;;9.73;7.33;;;;;;;;;;5071641;28;20308;-62
2020/12/21 13:21:02;;;;;;;9.70;7.63;;;;;;;;;;5065929;28;20252;-62
2020/12/21 13:23:27;;;;;;;9.10;7.37;;;;;;;;;;5064209;28;20309;-62
2020/12/21 13:25:52;;;;;;;7.73;7.00;;;;;;;;;;5066066;28;20657;-62
2020/12/21 13:28:18;;;;;;;9.97;6.73;;;;;;;;;;5071058;28;20306;-62
2020/12/21 13:30:43;;;;;;;7.10;6.40;;;;;;;;;;5068397;28;20252;-62
2020/12/21 13:33:08;;;;;;;10.77;8.20;;;;;;;;;;5064085;28;20309;-62
2020/12/21 13:35:33;;;;;;;8.20;7.07;;;;;;;;;;5067162;28;20270;-62
2020/12/21 13:37:59;;;;;;;9.00;6.70;;;;;;;;;;5070061;28;20229;-62
2020/12/21 13:40:24;;;;;;;9.27;7.03;;;;;;;;;;5067654;28;20307;-62
2020/12/21 13:42:49;;;;;;;7.57;6.87;;;;;;;;;;5063476;28;20304;-62
2020/12/21 13:45:15;;;;;;;10.00;7.50;;;;;;;;;;5067397;28;20322;-62
2020/12/21 13:47:40;;;;;;;8.00;6.60;;;;;;;;;;5069738;28;20227;-62
2020/12/21 13:50:06;;;;;;;12.17;7.03;;;;;;;;;;5064709;28;20217;-62
2020/12/21 13:52:32;;;;;;;9.20;7.07;;;;;;;;;;5063795;28;20711;-61
2020/12/21 13:54:57;;;;;;;11.10;7.73;;;;;;;;;;5066237;28;20459;-62
2020/12/21 13:57:23;;;;;;;9.50;7.73;;;;;;;;;;5070557;28;20940;-62
2020/12/21 13:59:48;;;;;;;11.83;7.97;;;;;;;;;;5067006;28;20308;-62
2020/12/21 14:02:13;;;;;;;7.93;7.13;;;;;;;;;;5062487;28;20231;-62
2020/12/21 14:04:38;;;;;;;8.10;7.27;;;;;;;;;;5074069;28;20313;-63
2020/12/21 14:07:04;;;;;;;10.63;7.27;;;;;;;;;;5063107;28;20586;-61
2020/12/21 14:09:29;;;;;;;12.77;8.07;;;;;;;;;;5067149;28;20227;-61
2020/12/21 14:11:54;;;;;;;14.20;9.07;;;;;;;;;;5069826;28;20314;-61
2020/12/21 14:14:20;;;;;;;9.73;7.27;;;;;;;;;;5058181;28;20635;-62
2020/12/21 14:16:45;;;;;;;8.47;7.10;;;;;;;;;;5069797;28;20241;-62
2020/12/21 14:19:10;;;;;;;9.03;7.70;;;;;;;;;;5064037;28;20244;-62
2020/12/21 14:21:36;;;;;;;8.60;7.43;;;;;;;;;;5063145;28;20230;-62